Time;durP1;ratioP1;P1;durP2;ratioP2;P2;SDS_P1;SDS_P2;PMS_P1;PMS_P2;Temp;Humidity;BMP_temperature;BMP_pressure;BME280_temperature;BME280_humidity;BME280_pressure;Samples;Min_cycle;Max_cycle;Signal;HPM_P1;HPM_P2
2022/07/18 00:01:56;;;;;;;;;;;24.90;51.70;;;;;;5022273;28;87030;-42
2022/07/18 00:04:22;;;;;;;;;;;24.80;51.70;;;;;;5021438;28;90267;-44
2022/07/18 00:06:47;;;;;;;;;;;24.80;51.70;;;;;;5022425;28;87190;-42
2022/07/18 00:09:13;;;;;;;;;;;24.80;51.60;;;;;;5022592;28;87348;-46
2022/07/18 00:11:38;;;;;;;;;;;24.80;51.70;;;;;;5022270;28;87974;-45
2022/07/18 00:14:04;;;;;;;;;;;24.80;51.70;;;;;;5025431;28;87032;-44
2022/07/18 00:16:30;;;;;;;;;;;24.80;51.70;;;;;;5021738;28;87412;-42
2022/07/18 00:18:58;;;;;;;;;;;24.80;51.60;;;;;;5022532;28;87069;-44
2022/07/18 00:21:24;;;;;;;;;;;24.70;51.50;;;;;;5022577;28;89255;-42
2022/07/18 00:23:49;;;;;;;;;;;24.70;51.60;;;;;;5022017;28;87966;-43
2022/07/18 00:26:15;;;;;;;;;;;24.70;51.60;;;;;;5022361;28;87135;-42
2022/07/18 00:28:40;;;;;;;;;;;24.70;51.70;;;;;;5021794;28;88507;-43
2022/07/18 00:31:06;;;;;;;;;;;24.60;51.50;;;;;;5021895;28;87884;-43
2022/07/18 00:33:31;;;;;;;;;;;24.60;51.50;;;;;;5022187;28;87117;-44
2022/07/18 00:35:57;;;;;;;;;;;24.60;51.40;;;;;;5024656;28;87453;-44
2022/07/18 00:38:22;;;;;;;;;;;24.60;51.50;;;;;;5022528;28;87122;-43
2022/07/18 00:40:48;;;;;;;;;;;24.60;51.60;;;;;;5025800;28;87347;-42
2022/07/18 00:43:14;;;;;;;;;;;24.50;51.50;;;;;;5025295;28;87989;-43
2022/07/18 00:45:43;;;;;;;;;;;24.50;51.50;;;;;;5025392;28;86462;-42
2022/07/18 00:48:08;;;;;;;;;;;24.50;51.50;;;;;;5023745;28;88361;-42
2022/07/18 00:50:34;;;;;;;;;;;24.50;51.50;;;;;;5025274;28;88088;-43
2022/07/18 00:53:00;;;;;;;;;;;24.50;51.50;;;;;;5024889;28;88046;-43
2022/07/18 00:55:25;;;;;;;;;;;24.50;51.50;;;;;;5025377;28;88370;-44
2022/07/18 00:57:51;;;;;;;;;;;24.50;51.40;;;;;;5027748;28;88498;-45
2022/07/18 01:03:00;;;;;;;;;;;24.40;51.40;;;;;;5025158;28;87407;-43
2022/07/18 01:05:26;;;;;;;;;;;24.40;51.40;;;;;;5025164;28;87040;-42
2022/07/18 01:07:52;;;;;;;;;;;24.40;51.50;;;;;;5025239;28;87568;-43
2022/07/18 01:10:18;;;;;;;;;;;24.30;51.40;;;;;;5025418;28;87356;-43
2022/07/18 01:12:44;;;;;;;;;;;24.30;51.40;;;;;;5024835;28;87077;-44
2022/07/18 01:15:10;;;;;;;;;;;24.30;51.40;;;;;;5025244;28;87520;-43
2022/07/18 01:17:35;;;;;;;;;;;24.30;51.40;;;;;;5024248;28;89108;-45
2022/07/18 01:20:01;;;;;;;;;;;24.30;51.40;;;;;;5027848;28;87071;-42
2022/07/18 01:22:27;;;;;;;;;;;24.20;51.40;;;;;;5024303;28;89403;-42
2022/07/18 01:24:52;;;;;;;;;;;24.20;51.50;;;;;;5024971;28;87143;-44
2022/07/18 01:27:19;;;;;;;;;;;24.20;51.50;;;;;;5024975;28;87448;-45
2022/07/18 01:29:45;;;;;;;;;;;24.20;51.50;;;;;;5024284;28;89336;-43
2022/07/18 01:32:12;;;;;;;;;;;24.20;51.50;;;;;;5024917;28;87113;-43
2022/07/18 01:34:37;;;;;;;;;;;24.20;51.50;;;;;;5025405;28;87834;-44
2022/07/18 01:37:04;;;;;;;;;;;24.10;52.10;;;;;;5024494;28;88180;-43
2022/07/18 01:39:29;;;;;;;;;;;24.10;51.30;;;;;;5024585;28;87117;-45
2022/07/18 01:41:58;;;;;;;;;;;24.10;51.60;;;;;;5026521;28;87925;-42
2022/07/18 01:44:24;;;;;;;;;;;24.10;51.40;;;;;;5024427;28;87043;-44
2022/07/18 01:46:50;;;;;;;;;;;24.00;51.40;;;;;;5024543;28;87434;-44
2022/07/18 01:49:15;;;;;;;;;;;24.00;51.40;;;;;;5023976;28;87781;-42
2022/07/18 01:51:44;;;;;;;;;;;24.00;51.50;;;;;;5023522;28;87112;-44
2022/07/18 01:54:10;;;;;;;;;;;24.00;51.40;;;;;;5024559;28;87377;-42
2022/07/18 01:56:35;;;;;;;;;;;24.00;51.40;;;;;;5024230;28;88305;-43
2022/07/18 01:59:01;;;;;;;;;;;23.90;51.40;;;;;;5024674;28;86356;-42
2022/07/18 02:01:27;;;;;;;;;;;23.90;51.40;;;;;;5026924;28;86994;-44
2022/07/18 02:03:52;;;;;;;;;;;23.90;51.40;;;;;;5024420;28;87082;-45
2022/07/18 02:06:18;;;;;;;;;;;23.90;51.30;;;;;;5023830;28;87889;-44
2022/07/18 02:08:43;;;;;;;;;;;23.90;51.50;;;;;;5024009;28;88041;-44
2022/07/18 02:11:09;;;;;;;;;;;23.80;51.40;;;;;;5022813;28;87020;-42
2022/07/18 02:13:35;;;;;;;;;;;23.80;51.50;;;;;;5023966;28;87427;-44
2022/07/18 02:16:00;;;;;;;;;;;23.80;51.40;;;;;;5023862;28;88013;-42
2022/07/18 02:18:26;;;;;;;;;;;23.80;51.40;;;;;;5024413;28;87014;-43
2022/07/18 02:20:52;;;;;;;;;;;23.70;51.40;;;;;;5024101;28;87209;-45
2022/07/18 02:23:17;;;;;;;;;;;23.70;51.40;;;;;;5027225;28;87481;-43
2022/07/18 02:25:43;;;;;;;;;;;23.70;51.30;;;;;;5024192;28;86867;-46
2022/07/18 02:28:08;;;;;;;;;;;23.70;51.40;;;;;;5023640;28;88196;-44
2022/07/18 02:30:34;;;;;;;;;;;23.60;51.40;;;;;;5023250;28;88180;-43
2022/07/18 02:32:59;;;;;;;;;;;23.60;52.00;;;;;;5023925;28;88499;-42
2022/07/18 02:35:25;;;;;;;;;;;23.60;51.30;;;;;;5023205;28;89388;-44
2022/07/18 02:37:50;;;;;;;;;;;23.60;51.40;;;;;;5023780;28;87100;-43
2022/07/18 02:40:16;;;;;;;;;;;23.60;51.30;;;;;;5023913;28;86998;-43
2022/07/18 02:42:41;;;;;;;;;;;23.60;51.20;;;;;;5023449;28;87880;-44
2022/07/18 02:45:07;;;;;;;;;;;23.60;51.20;;;;;;5026415;28;87255;-44
2022/07/18 02:47:33;;;;;;;;;;;23.50;51.30;;;;;;5023553;28;88952;-45
2022/07/18 02:49:58;;;;;;;;;;;23.50;51.30;;;;;;5023700;28;87163;-44
2022/07/18 02:52:24;;;;;;;;;;;23.50;51.20;;;;;;5023761;28;86887;-43
2022/07/18 02:54:50;;;;;;;;;;;23.50;51.30;;;;;;5022710;28;88889;-47
2022/07/18 02:57:15;;;;;;;;;;;23.50;51.40;;;;;;5023399;28;87009;-44
2022/07/18 02:59:41;;;;;;;;;;;23.40;51.40;;;;;;5023548;28;88318;-43
2022/07/18 03:02:06;;;;;;;;;;;23.40;51.30;;;;;;5022306;28;89449;-43
2022/07/18 03:04:32;;;;;;;;;;;23.40;51.30;;;;;;5023398;28;87231;-42
2022/07/18 03:06:57;;;;;;;;;;;23.30;51.40;;;;;;5026147;28;87160;-43
2022/07/18 03:09:26;;;;;;;;;;;23.30;51.20;;;;;;5023136;28;86964;-42
2022/07/18 03:11:53;;;;;;;;;;;23.30;51.30;;;;;;5023479;28;88851;-46
2022/07/18 03:14:18;;;;;;;;;;;23.30;51.10;;;;;;5022612;28;88120;-43
2022/07/18 03:16:44;;;;;;;;;;;23.30;51.20;;;;;;5023181;28;87082;-42
2022/07/18 03:19:09;;;;;;;;;;;23.30;51.20;;;;;;5021223;28;88532;-44
2022/07/18 03:21:35;;;;;;;;;;;23.30;51.20;;;;;;5022691;28;87970;-42
2022/07/18 03:24:01;;;;;;;;;;;23.20;51.10;;;;;;5022956;28;87087;-42
2022/07/18 03:26:26;;;;;;;;;;;23.20;51.00;;;;;;5023057;28;87086;-42
2022/07/18 03:28:52;;;;;;;;;;;23.10;51.10;;;;;;5025461;28;88069;-43
2022/07/18 03:31:17;;;;;;;;;;;23.10;51.00;;;;;;5023080;28;87546;-43
2022/07/18 03:33:43;;;;;;;;;;;23.10;51.70;;;;;;5022762;28;88230;-43
2022/07/18 03:36:08;;;;;;;;;;;23.10;51.20;;;;;;5023487;28;86396;-44
2022/07/18 03:38:35;;;;;;;;;;;23.00;50.90;;;;;;5023270;28;88159;-43
2022/07/18 03:41:01;;;;;;;;;;;23.00;50.90;;;;;;5022125;28;89602;-43
2022/07/18 03:43:27;;;;;;;;;;;23.00;51.10;;;;;;5021652;28;87979;-42
2022/07/18 03:45:52;;;;;;;;;;;23.00;51.20;;;;;;5022446;28;88384;-43
2022/07/18 03:48:18;;;;;;;;;;;23.00;51.00;;;;;;5022395;28;88258;-44
2022/07/18 03:50:45;;;;;;;;;;;22.90;51.00;;;;;;5023258;28;87127;-47
2022/07/18 03:53:11;;;;;;;;;;;22.90;51.00;;;;;;5022321;28;88091;-44
2022/07/18 03:55:36;;;;;;;;;;;22.90;51.00;;;;;;5022693;28;87392;-43
2022/07/18 03:58:02;;;;;;;;;;;22.90;51.10;;;;;;5022420;28;86992;-42
2022/07/18 04:00:28;;;;;;;;;;;22.90;51.00;;;;;;5022502;28;88660;-43
2022/07/18 04:02:53;;;;;;;;;;;22.90;51.00;;;;;;5022280;28;87158;-44
2022/07/18 04:05:19;;;;;;;;;;;22.80;51.00;;;;;;5022567;28;87425;-44
2022/07/18 04:07:44;;;;;;;;;;;22.80;51.00;;;;;;5021674;28;89082;-43
2022/07/18 04:10:10;;;;;;;;;;;22.80;51.60;;;;;;5025479;28;87066;-43
2022/07/18 04:12:44;;;;;;;;;;;22.80;51.10;;;;;;5021428;28;89425;-43
2022/07/18 04:15:09;;;;;;;;;;;22.80;51.00;;;;;;5022029;28;87153;-42
2022/07/18 04:17:35;;;;;;;;;;;22.70;51.00;;;;;;5022468;28;87443;-44
2022/07/18 04:20:00;;;;;;;;;;;22.70;51.00;;;;;;5020524;28;91049;-44
2022/07/18 04:22:26;;;;;;;;;;;22.70;51.00;;;;;;5022460;28;87557;-44
2022/07/18 04:24:51;;;;;;;;;;;22.70;51.10;;;;;;5022962;28;87597;-43
2022/07/18 04:27:17;;;;;;;;;;;22.70;51.10;;;;;;5021723;28;89749;-43
2022/07/18 04:29:42;;;;;;;;;;;22.70;51.10;;;;;;5022101;28;87126;-43
2022/07/18 04:32:08;;;;;;;;;;;22.60;51.00;;;;;;5024331;28;87917;-43
2022/07/18 04:34:33;;;;;;;;;;;22.60;51.00;;;;;;5022257;28;87067;-42
2022/07/18 04:36:59;;;;;;;;;;;22.60;51.20;;;;;;5022252;28;86945;-43
2022/07/18 04:39:24;;;;;;;;;;;22.60;51.00;;;;;;5021816;28;87988;-43
2022/07/18 04:41:50;;;;;;;;;;;22.50;51.10;;;;;;5022029;28;87140;-44
2022/07/18 04:44:15;;;;;;;;;;;22.50;51.10;;;;;;5022101;28;87242;-43
2022/07/18 04:46:41;;;;;;;;;;;22.50;51.10;;;;;;5021391;28;88050;-43
2022/07/18 04:49:06;;;;;;;;;;;22.50;51.20;;;;;;5022330;28;86451;-43
2022/07/18 04:51:32;;;;;;;;;;;22.50;51.20;;;;;;5022015;28;86967;-42
2022/07/18 04:53:58;;;;;;;;;;;22.50;51.30;;;;;;5024524;28;87880;-44
2022/07/18 04:56:23;;;;;;;;;;;22.50;51.20;;;;;;5021294;28;87970;-44
2022/07/18 04:58:49;;;;;;;;;;;22.40;51.20;;;;;;5021401;28;88157;-42
2022/07/18 05:01:14;;;;;;;;;;;22.50;51.20;;;;;;5021705;28;87151;-44
2022/07/18 05:03:40;;;;;;;;;;;22.40;51.20;;;;;;5021812;28;87350;-42
2022/07/18 05:06:05;;;;;;;;;;;22.40;51.20;;;;;;5021541;28;88161;-42
2022/07/18 05:08:31;;;;;;;;;;;22.40;51.20;;;;;;5021913;28;87110;-42
2022/07/18 05:10:56;;;;;;;;;;;22.40;51.30;;;;;;5021935;28;87742;-42
2022/07/18 05:13:22;;;;;;;;;;;22.40;51.20;;;;;;5021756;28;87752;-44
2022/07/18 05:15:47;;;;;;;;;;;22.40;51.30;;;;;;5024653;28;87134;-42
2022/07/18 05:18:13;;;;;;;;;;;22.40;51.40;;;;;;5021236;28;89355;-45
2022/07/18 05:20:38;;;;;;;;;;;22.40;51.40;;;;;;5021065;28;88077;-42
2022/07/18 05:23:04;;;;;;;;;;;22.40;51.40;;;;;;5021791;28;88303;-44
2022/07/18 05:25:29;;;;;;;;;;;22.40;51.40;;;;;;5023156;28;88263;-43
2022/07/18 05:27:55;;;;;;;;;;;22.40;51.50;;;;;;5024914;28;86889;-43
2022/07/18 05:30:21;;;;;;;;;;;22.40;51.50;;;;;;5024993;28;87066;-42
2022/07/18 05:32:47;;;;;;;;;;;22.40;51.50;;;;;;5024292;28;90113;-44
2022/07/18 05:35:13;;;;;;;;;;;22.40;51.50;;;;;;5024617;28;87117;-42
2022/07/18 05:37:39;;;;;;;;;;;22.30;51.50;;;;;;5028027;28;87205;-44
2022/07/18 05:40:06;;;;;;;;;;;22.30;51.60;;;;;;5024797;28;87161;-42
2022/07/18 05:42:31;;;;;;;;;;;22.30;51.60;;;;;;5024245;28;87097;-43
2022/07/18 05:44:57;;;;;;;;;;;22.30;51.70;;;;;;5023166;28;88967;-47
2022/07/18 05:47:22;;;;;;;;;;;22.30;51.80;;;;;;5024917;28;86970;-45
2022/07/18 05:49:48;;;;;;;;;;;22.30;51.90;;;;;;5024577;28;87038;-42
2022/07/18 05:52:13;;;;;;;;;;;22.30;51.90;;;;;;5024260;28;88653;-43
2022/07/18 05:54:39;;;;;;;;;;;22.30;51.90;;;;;;5024586;28;87194;-43
2022/07/18 05:57:04;;;;;;;;;;;22.30;52.00;;;;;;5027113;28;87623;-42
2022/07/18 05:59:30;;;;;;;;;;;22.30;52.00;;;;;;5024270;28;87155;-42
2022/07/18 06:01:56;;;;;;;;;;;22.20;52.10;;;;;;5024760;28;89194;-43
2022/07/18 06:04:21;;;;;;;;;;;22.30;52.10;;;;;;5024120;28;88086;-43
2022/07/18 06:06:49;;;;;;;;;;;22.20;52.10;;;;;;5024489;28;87097;-44
2022/07/18 06:09:16;;;;;;;;;;;22.30;52.10;;;;;;5023549;28;88024;-43
2022/07/18 06:11:41;;;;;;;;;;;22.20;52.20;;;;;;5023748;28;88425;-43
2022/07/18 06:14:07;;;;;;;;;;;22.20;52.20;;;;;;5024193;28;87451;-43
2022/07/18 06:16:33;;;;;;;;;;;22.20;52.20;;;;;;5024364;28;87247;-43
2022/07/18 06:18:58;;;;;;;;;;;22.20;52.30;;;;;;5027145;28;87970;-42
2022/07/18 06:21:24;;;;;;;;;;;22.30;52.20;;;;;;5024188;28;87534;-41
2022/07/18 06:23:49;;;;;;;;;;;22.20;52.20;;;;;;5023910;28;87990;-43
2022/07/18 06:26:15;;;;;;;;;;;22.30;52.30;;;;;;5024528;28;86439;-42
2022/07/18 06:28:40;;;;;;;;;;;22.20;53.00;;;;;;5023936;28;87108;-43
2022/07/18 06:31:06;;;;;;;;;;;22.20;52.20;;;;;;5023778;28;88127;-43
2022/07/18 06:33:32;;;;;;;;;;;22.20;52.30;;;;;;5023560;28;88093;-41
2022/07/18 06:35:57;;;;;;;;;;;22.30;52.30;;;;;;5021889;28;89048;-42
2022/07/18 06:38:23;;;;;;;;;;;22.20;52.30;;;;;;5023227;28;89188;-41
2022/07/18 06:40:48;;;;;;;;;;;22.20;52.30;;;;;;5026824;28;87008;-41
2022/07/18 06:43:19;;;;;;;;;;;22.30;52.30;;;;;;5023427;28;88193;-42
2022/07/18 06:45:45;;;;;;;;;;;22.20;52.30;;;;;;5023150;28;87106;-44
2022/07/18 06:48:10;;;;;;;;;;;22.20;52.30;;;;;;5023654;28;87434;-43
2022/07/18 06:50:36;;;;;;;;;;;22.20;53.10;;;;;;5023564;28;88700;-43
2022/07/18 06:53:01;;;;;;;;;;;22.20;52.40;;;;;;5023785;28;87066;-46
2022/07/18 06:55:27;;;;;;;;;;;22.20;52.40;;;;;;5023628;28;87236;-42
2022/07/18 06:57:52;;;;;;;;;;;22.20;52.30;;;;;;5022433;28;88965;-42
2022/07/18 07:00:18;;;;;;;;;;;22.20;52.30;;;;;;5023537;28;87129;-42
2022/07/18 07:02:44;;;;;;;;;;;22.30;52.30;;;;;;5026013;28;87311;-44
2022/07/18 07:05:10;;;;;;;;;;;22.20;52.40;;;;;;5023115;28;87118;-42
2022/07/18 07:07:36;;;;;;;;;;;22.20;52.40;;;;;;5023325;28;88757;-42
2022/07/18 07:10:02;;;;;;;;;;;22.20;52.30;;;;;;5022807;28;89442;-41
2022/07/18 07:12:27;;;;;;;;;;;22.20;52.30;;;;;;5023099;28;87141;-43
2022/07/18 07:14:53;;;;;;;;;;;22.20;52.30;;;;;;5023932;28;87510;-43
2022/07/18 07:17:19;;;;;;;;;;;22.20;52.40;;;;;;5022909;28;88086;-43
2022/07/18 07:19:44;;;;;;;;;;;22.20;53.10;;;;;;5023401;28;87014;-43
2022/07/18 07:22:10;;;;;;;;;;;22.20;52.50;;;;;;5022684;28;87976;-43
2022/07/18 07:24:38;;;;;;;;;;;22.20;52.50;;;;;;5025699;28;88072;-42
2022/07/18 07:27:03;;;;;;;;;;;22.20;52.60;;;;;;5023080;28;88688;-42
2022/07/18 07:29:29;;;;;;;;;;;22.20;52.40;;;;;;5022900;28;87903;-44
2022/07/18 07:31:55;;;;;;;;;;;22.20;52.30;;;;;;5022971;28;87213;-43
2022/07/18 07:34:20;;;;;;;;;;;22.20;52.30;;;;;;5022907;28;87448;-46
2022/07/18 07:36:46;;;;;;;;;;;22.20;52.20;;;;;;5022745;28;87155;-45
2022/07/18 07:39:11;;;;;;;;;;;22.20;52.00;;;;;;5023493;28;86186;-44
2022/07/18 07:41:37;;;;;;;;;;;22.20;51.90;;;;;;5022686;28;86980;-44
2022/07/18 07:44:02;;;;;;;;;;;22.20;51.90;;;;;;5022652;28;88325;-44
2022/07/18 07:46:28;;;;;;;;;;;22.20;52.00;;;;;;5024487;28;88094;-42
2022/07/18 07:48:53;;;;;;;;;;;22.20;51.70;;;;;;5022316;28;88318;-46
2022/07/18 07:51:19;;;;;;;;;;;22.20;51.80;;;;;;5022890;28;87004;-43
2022/07/18 07:53:44;;;;;;;;;;;22.20;51.60;;;;;;5022923;28;87518;-46
2022/07/18 07:56:10;;;;;;;;;;;22.20;51.50;;;;;;5022497;28;88283;-44
2022/07/18 07:58:36;;;;;;;;;;;22.20;51.40;;;;;;5022685;28;87183;-42
2022/07/18 08:01:01;;;;;;;;;;;22.20;51.20;;;;;;5022848;28;87348;-43
2022/07/18 08:03:27;;;;;;;;;;;22.20;51.30;;;;;;5022737;28;87172;-44
2022/07/18 08:05:52;;;;;;;;;;;22.20;51.20;;;;;;5025475;28;87169;-44
2022/07/18 08:08:18;;;;;;;;;;;22.20;51.20;;;;;;5022424;28;88078;-42
2022/07/18 08:10:44;;;;;;;;;;;22.20;51.00;;;;;;5021514;28;88726;-42
2022/07/18 08:13:11;;;;;;;;;;;22.20;50.90;;;;;;5021914;28;90147;-42
2022/07/18 08:15:36;;;;;;;;;;;22.20;50.70;;;;;;5022136;28;88061;-42
2022/07/18 08:18:02;;;;;;;;;;;22.20;50.90;;;;;;5022298;28;87028;-41
2022/07/18 08:20:27;;;;;;;;;;;22.20;50.70;;;;;;5022399;28;87218;-42
2022/07/18 08:22:53;;;;;;;;;;;22.20;50.80;;;;;;5021728;28;89380;-43
2022/07/18 08:25:19;;;;;;;;;;;22.10;50.70;;;;;;5022325;28;87123;-42
2022/07/18 08:27:44;;;;;;;;;;;22.20;50.50;;;;;;5024877;28;88781;-43
2022/07/18 08:30:10;;;;;;;;;;;22.20;50.50;;;;;;5022369;28;86922;-42
2022/07/18 08:32:35;;;;;;;;;;;22.20;50.40;;;;;;5022578;28;87766;-43
2022/07/18 08:35:01;;;;;;;;;;;22.20;50.30;;;;;;5020927;28;90532;-41
2022/07/18 08:37:27;;;;;;;;;;;22.10;50.20;;;;;;5022339;28;87202;-42
2022/07/18 08:39:52;;;;;;;;;;;22.20;50.60;;;;;;5022335;28;87386;-44
2022/07/18 08:42:20;;;;;;;;;;;22.20;50.00;;;;;;5021616;28;88044;-44
2022/07/18 08:44:45;;;;;;;;;;;22.20;50.40;;;;;;5021418;28;87266;-44
2022/07/18 08:47:13;;;;;;;;;;;22.20;50.20;;;;;;5022163;28;87461;-45
2022/07/18 08:49:38;;;;;;;;;;;22.20;50.20;;;;;;5024398;28;88060;-43
2022/07/18 08:52:04;;;;;;;;;;;22.20;49.60;;;;;;5022480;28;87894;-42
2022/07/18 08:54:30;;;;;;;;;;;22.20;49.80;;;;;;5021442;28;87735;-45
2022/07/18 08:56:56;;;;;;;;;;;22.20;49.70;;;;;;5021722;28;87093;-43
2022/07/18 08:59:21;;;;;;;;;;;22.20;49.60;;;;;;5021865;28;87807;-43
2022/07/18 09:01:47;;;;;;;;;;;22.20;49.80;;;;;;5024915;28;88285;-42
2022/07/18 09:04:30;;;;;;;;;;;22.20;49.80;;;;;;5025153;28;87173;-42
2022/07/18 09:06:58;;;;;;;;;;;22.20;49.60;;;;;;5025504;28;87987;-43
2022/07/18 09:09:23;;;;;;;;;;;22.20;49.50;;;;;;5024679;28;89367;-45
2022/07/18 09:11:49;;;;;;;;;;;22.20;49.50;;;;;;5027854;28;87184;-43
2022/07/18 09:14:28;;;;;;;;;;;22.20;49.60;;;;;;5024658;28;89455;-42
2022/07/18 09:17:11;;;;;;;;;;;22.20;49.20;;;;;;5025621;28;86399;-43
2022/07/18 09:19:38;;;;;;;;;;;22.30;49.60;;;;;;5025409;28;87026;-42
2022/07/18 09:22:30;;;;;;;;;;;22.20;49.20;;;;;;5024505;28;88395;-45
2022/07/18 09:24:56;;;;;;;;;;;22.20;49.30;;;;;;5021962;28;87974;-43
2022/07/18 09:27:27;;;;;;;;;;;22.30;49.60;;;;;;5025142;28;88461;-42
2022/07/18 09:30:15;;;;;;;;;;;22.20;49.50;;;;;;5024413;28;88126;-44
2022/07/18 09:32:41;;;;;;;;;;;22.30;49.50;;;;;;5024792;28;87429;-45
2022/07/18 09:35:08;;;;;;;;;;;22.30;49.50;;;;;;5027696;28;88299;-41
2022/07/18 09:37:33;;;;;;;;;;;22.30;48.90;;;;;;5024579;28;87117;-44
2022/07/18 09:40:17;;;;;;;;;;;22.30;49.00;;;;;;5024801;28;86963;-44
2022/07/18 09:42:43;;;;;;;;;;;22.30;49.20;;;;;;5024785;28;87259;-42
2022/07/18 09:45:09;;;;;;;;;;;22.30;48.30;;;;;;5024313;28;87157;-43
2022/07/18 09:47:48;;;;;;;;;;;22.30;48.60;;;;;;5024881;28;87528;-44
2022/07/18 09:50:21;;;;;;;;;;;22.30;47.90;;;;;;5023634;28;88127;-43
2022/07/18 09:52:55;;;;;;;;;;;22.30;48.80;;;;;;5024489;28;87043;-41
2022/07/18 09:55:20;;;;;;;;;;;22.30;47.80;;;;;;5024664;28;87405;-42
2022/07/18 09:57:55;;;;;;;;;;;22.40;48.80;;;;;;5027128;28;88213;-43
2022/07/18 10:00:21;;;;;;;;;;;22.40;48.60;;;;;;5024677;28;87178;-43
2022/07/18 10:02:47;;;;;;;;;;;22.40;47.80;;;;;;5024084;28;88024;-43
2022/07/18 10:05:13;;;;;;;;;;;22.40;48.80;;;;;;5024655;28;87089;-45
2022/07/18 10:07:38;;;;;;;;;;;22.40;48.80;;;;;;5024839;28;87398;-43
2022/07/18 10:10:04;;;;;;;;;;;22.40;48.10;;;;;;5023903;28;88000;-42
2022/07/18 10:12:30;;;;;;;;;;;22.40;48.30;;;;;;5022902;28;87084;-43
2022/07/18 10:14:56;;;;;;;;;;;22.40;48.90;;;;;;5023685;28;87972;-44
2022/07/18 10:17:22;;;;;;;;;;;22.40;48.80;;;;;;5026941;28;87838;-43
2022/07/18 10:19:47;;;;;;;;;;;22.50;48.60;;;;;;5024158;28;87435;-44
2022/07/18 10:22:13;;;;;;;;;;;22.50;48.60;;;;;;5023864;28;88108;-42
2022/07/18 10:24:40;;;;;;;;;;;22.50;48.70;;;;;;5024166;28;87135;-43
2022/07/18 10:27:13;;;;;;;;;;;22.40;48.10;;;;;;5024057;28;87604;-43
2022/07/18 10:29:38;;;;;;;;;;;22.50;48.30;;;;;;5023544;28;87182;-42
2022/07/18 10:32:04;;;;;;;;;;;22.50;48.50;;;;;;5024408;28;86273;-42
2022/07/18 10:34:35;;;;;;;;;;;22.50;48.50;;;;;;5023915;28;87084;-45
2022/07/18 10:37:02;;;;;;;;;;;22.50;48.30;;;;;;5023526;28;87969;-42
2022/07/18 10:39:35;;;;;;;;;;;22.50;48.50;;;;;;5025891;28;87870;-43
2022/07/18 10:42:01;;;;;;;;;;;22.60;48.20;;;;;;5023186;28;87791;-45
2022/07/18 10:44:28;;;;;;;;;;;22.60;48.40;;;;;;5023433;28;87114;-42
2022/07/18 10:47:03;;;;;;;;;;;22.60;48.50;;;;;;5023502;28;87444;-43
2022/07/18 10:49:49;;;;;;;;;;;22.60;48.50;;;;;;5023129;28;88225;-43
2022/07/18 10:52:24;;;;;;;;;;;22.60;48.40;;;;;;5023560;28;87160;-43
2022/07/18 10:55:02;;;;;;;;;;;22.60;48.50;;;;;;5023750;28;87698;-44
2022/07/18 10:57:32;;;;;;;;;;;22.60;49.00;;;;;;5023585;28;88491;-42
2022/07/18 11:00:08;;;;;;;;;;;22.60;47.90;;;;;;5023583;28;87467;-43
2022/07/18 11:02:34;;;;;;;;;;;22.70;48.90;;;;;;5025953;28;88875;-42
2022/07/18 11:05:00;;;;;;;;;;;22.70;48.00;;;;;;5022828;28;88001;-45
2022/07/18 11:07:25;;;;;;;;;;;22.70;47.50;;;;;;5023316;28;89564;-42
2022/07/18 11:09:51;;;;;;;;;;;22.70;47.80;;;;;;5023081;28;87057;-42
2022/07/18 11:12:16;;;;;;;;;;;22.70;47.60;;;;;;5023425;28;87161;-43
2022/07/18 11:15:20;;;;;;;;;;;22.70;47.80;;;;;;5023497;28;86906;-44
2022/07/18 11:17:51;;;;;;;;;;;22.80;47.70;;;;;;4980536;28;87138;-42
2022/07/18 11:20:37;;;;;;;;;;;22.80;47.50;;;;;;4980334;28;86979;-42
2022/07/18 11:23:03;;;;;;;;;;;22.80;48.20;;;;;;5007019;28;88958;-44
2022/07/18 11:25:29;;;;;;;;;;;22.90;44.70;;;;;;5025730;28;88166;-42
2022/07/18 11:27:55;;;;;;;;;;;22.90;44.40;;;;;;5023125;28;87401;-43
2022/07/18 11:30:21;;;;;;;;;;;23.00;44.30;;;;;;5022108;28;89053;-42
2022/07/18 11:32:47;;;;;;;;;;;23.00;45.50;;;;;;5023315;28;87244;-44
2022/07/18 11:35:13;;;;;;;;;;;23.00;45.30;;;;;;5022773;28;87902;-46
2022/07/18 11:37:38;;;;;;;;;;;23.00;45.40;;;;;;5022541;28;87650;-43
2022/07/18 11:42:55;;;;;;;;;;;23.10;44.70;;;;;;5023093;28;87070;-43
2022/07/18 11:45:22;;;;;;;;;;;23.00;44.60;;;;;;5021895;28;88109;-43
2022/07/18 11:47:51;;;;;;;;;;;23.10;44.60;;;;;;5026520;28;86211;-44
2022/07/18 11:50:18;;;;;;;;;;;23.10;45.20;;;;;;5022225;28;88319;-46
2022/07/18 11:52:44;;;;;;;;;;;23.10;42.70;;;;;;5022615;28;87190;-46
2022/07/18 11:55:11;;;;;;;;;;;23.20;43.70;;;;;;5022023;28;87981;-44
2022/07/18 11:57:37;;;;;;;;;;;23.20;42.20;;;;;;5021983;28;89399;-46
2022/07/18 12:00:13;;;;;;;;;;;23.30;43.40;;;;;;5022530;28;87123;-44
2022/07/18 12:02:39;;;;;;;;;;;23.40;42.50;;;;;;5022872;28;87018;-42
2022/07/18 12:05:04;;;;;;;;;;;23.30;42.90;;;;;;5022224;28;87266;-41
2022/07/18 12:07:30;;;;;;;;;;;23.40;41.90;;;;;;5022390;28;87125;-45
2022/07/18 12:09:56;;;;;;;;;;;23.50;42.40;;;;;;5024891;28;87482;-43
2022/07/18 12:12:22;;;;;;;;;;;23.50;42.10;;;;;;5023262;28;86356;-44
2022/07/18 12:14:58;;;;;;;;;;;23.50;41.90;;;;;;5022568;28;86908;-46
2022/07/18 12:17:23;;;;;;;;;;;23.50;42.00;;;;;;5021974;28;87982;-43
2022/07/18 12:19:49;;;;;;;;;;;23.50;42.30;;;;;;5021505;28;88274;-47
2022/07/18 12:22:14;;;;;;;;;;;23.50;42.90;;;;;;5022412;28;88411;-42
2022/07/18 12:24:41;;;;;;;;;;;23.50;43.00;;;;;;5020453;28;91299;-43
2022/07/18 12:27:26;;;;;;;;;;;23.50;43.00;;;;;;5022309;28;87089;-45
2022/07/18 12:29:52;;;;;;;;;;;23.50;43.20;;;;;;5016753;28;90312;-44
2022/07/18 12:32:18;;;;;;;;;;;23.50;43.60;;;;;;5022156;28;87057;-43
2022/07/18 12:35:03;;;;;;;;;;;23.50;43.80;;;;;;5023130;28;87437;-42
2022/07/18 12:37:30;;;;;;;;;;;23.50;44.10;;;;;;5025917;28;87019;-43
2022/07/18 12:39:56;;;;;;;;;;;23.50;44.10;;;;;;5025734;28;87085;-43
2022/07/18 12:42:29;;;;;;;;;;;23.50;44.40;;;;;;5025757;28;87494;-46
2022/07/18 12:44:55;;;;;;;;;;;23.50;44.20;;;;;;5024221;28;88941;-43
2022/07/18 12:47:20;;;;;;;;;;;23.50;45.20;;;;;;5026002;28;87001;-43
2022/07/18 12:49:46;;;;;;;;;;;23.50;44.50;;;;;;5025345;28;87444;-43
2022/07/18 12:52:11;;;;;;;;;;;23.60;44.60;;;;;;5028139;28;88032;-42
2022/07/18 12:54:37;;;;;;;;;;;23.60;44.80;;;;;;5025668;28;87580;-43
2022/07/18 12:57:02;;;;;;;;;;;23.60;45.10;;;;;;5025227;28;88420;-42
2022/07/18 12:59:28;;;;;;;;;;;23.60;45.10;;;;;;5025357;28;87047;-43
2022/07/18 13:01:53;;;;;;;;;;;23.60;45.20;;;;;;5026173;28;87471;-42
2022/07/18 13:04:19;;;;;;;;;;;23.60;45.10;;;;;;5024900;28;88078;-43
2022/07/18 13:06:45;;;;;;;;;;;23.60;45.00;;;;;;5025278;28;86998;-43
2022/07/18 13:09:10;;;;;;;;;;;23.70;45.10;;;;;;5024668;28;88988;-44
2022/07/18 13:11:36;;;;;;;;;;;23.70;45.20;;;;;;5024767;28;89688;-43
2022/07/18 13:14:01;;;;;;;;;;;23.70;45.30;;;;;;5028191;28;87485;-42
2022/07/18 13:16:27;;;;;;;;;;;23.70;45.40;;;;;;5024871;28;88218;-42
2022/07/18 13:18:52;;;;;;;;;;;23.80;45.50;;;;;;5025464;28;87138;-44
2022/07/18 13:21:18;;;;;;;;;;;23.80;45.50;;;;;;5025167;28;87611;-43
2022/07/18 13:23:44;;;;;;;;;;;23.80;45.50;;;;;;5024755;28;88157;-42
2022/07/18 13:26:09;;;;;;;;;;;23.80;45.40;;;;;;5025249;28;86150;-43
2022/07/18 13:28:35;;;;;;;;;;;23.90;45.50;;;;;;5025210;28;87097;-42
2022/07/18 13:31:01;;;;;;;;;;;23.90;45.90;;;;;;5024703;28;88183;-42
2022/07/18 13:33:27;;;;;;;;;;;23.90;44.60;;;;;;5024356;28;88203;-42
2022/07/18 13:35:52;;;;;;;;;;;24.00;42.50;;;;;;5027759;28;88256;-43
2022/07/18 13:38:18;;;;;;;;;;;24.00;42.00;;;;;;5024968;28;87268;-41
2022/07/18 13:40:43;;;;;;;;;;;24.00;41.50;;;;;;5024953;28;87917;-44
2022/07/18 13:43:09;;;;;;;;;;;24.10;42.00;;;;;;5024412;28;87953;-40
2022/07/18 13:45:34;;;;;;;;;;;24.10;42.50;;;;;;5023925;28;87173;-42
2022/07/18 13:48:00;;;;;;;;;;;24.20;43.50;;;;;;5024770;28;87486;-46
2022/07/18 13:50:25;;;;;;;;;;;24.20;44.60;;;;;;5024730;28;87268;-45
2022/07/18 13:52:51;;;;;;;;;;;24.20;44.00;;;;;;5024694;28;87108;-40
2022/07/18 13:55:16;;;;;;;;;;;24.30;43.70;;;;;;5024650;28;87388;-45
2022/07/18 13:57:42;;;;;;;;;;;24.30;43.60;;;;;;5026643;28;89017;-48
2022/07/18 14:00:09;;;;;;;;;;;24.40;42.90;;;;;;5024534;28;88434;-51
2022/07/18 14:02:34;;;;;;;;;;;24.40;44.20;;;;;;5023938;28;89432;-39
2022/07/18 14:05:00;;;;;;;;;;;24.40;42.90;;;;;;5024607;28;86994;-45
2022/07/18 14:07:25;;;;;;;;;;;24.40;43.10;;;;;;5024547;28;87363;-42
2022/07/18 14:09:51;;;;;;;;;;;24.40;42.70;;;;;;5024163;28;88045;-43
2022/07/18 14:12:16;;;;;;;;;;;24.40;42.50;;;;;;5024084;28;87624;-46
2022/07/18 14:14:42;;;;;;;;;;;24.40;42.20;;;;;;5024874;28;87463;-45
2022/07/18 14:17:07;;;;;;;;;;;24.50;42.40;;;;;;5023770;28;88219;-43
2022/07/18 14:19:36;;;;;;;;;;;24.60;43.00;;;;;;5027089;28;86986;-43